Time;durP1;ratioP1;P1;durP2;ratioP2;P2;SDS_P1;SDS_P2;PMS_P1;PMS_P2;Temp;Humidity;BMP_temperature;BMP_pressure;BME280_temperature;BME280_humidity;BME280_pressure;Samples;Min_cycle;Max_cycle;Signal;HPM_P1;HPM_P2
2023/09/08 00:02:19;;;;;;;2.50;2.00;;;26.40;50.20;;;;;;5022786;28;20053;-65
2023/09/08 00:04:44;;;;;;;3.33;2.40;;;26.40;50.20;;;;;;5021026;28;20073;-67
2023/09/08 00:07:10;;;;;;;2.80;1.92;;;26.40;50.20;;;;;;5021501;28;20068;-67
2023/09/08 00:09:35;;;;;;;2.85;2.22;;;26.40;50.30;;;;;;5022318;28;20561;-65
2023/09/08 00:12:01;;;;;;;2.85;2.08;;;26.40;50.80;;;;;;5021679;28;20048;-65
2023/09/08 00:14:27;;;;;;;3.28;2.40;;;26.40;50.20;;;;;;5020434;28;20053;-64
2023/09/08 00:16:56;;;;;;;3.13;2.10;;;26.40;50.20;;;;;;5021598;28;20038;-67
2023/09/08 00:19:22;;;;;;;2.80;2.25;;;26.40;50.20;;;;;;5022338;28;20025;-65
2023/09/08 00:21:49;;;;;;;3.50;2.50;;;26.40;50.30;;;;;;5021901;28;20037;-65
2023/09/08 00:24:15;;;;;;;3.40;2.33;;;26.40;50.30;;;;;;5020307;28;20030;-65
2023/09/08 00:26:41;;;;;;;2.78;2.03;;;26.30;50.20;;;;;;5019484;28;20077;-65
2023/09/08 00:29:07;;;;;;;3.17;2.10;;;26.30;50.20;;;;;;5020054;28;20055;-65
2023/09/08 00:31:33;;;;;;;3.03;2.20;;;26.30;50.20;;;;;;5020475;28;20029;-66
2023/09/08 00:33:58;;;;;;;3.08;2.30;;;26.30;50.30;;;;;;5022009;28;20029;-65
2023/09/08 00:36:24;;;;;;;3.10;2.13;;;26.30;50.80;;;;;;5019468;28;20055;-65
2023/09/08 00:38:50;;;;;;;2.88;2.30;;;26.30;50.30;;;;;;5020735;28;20065;-67
2023/09/08 00:41:15;;;;;;;2.83;2.10;;;26.30;50.40;;;;;;5019813;28;20037;-67
2023/09/08 00:43:41;;;;;;;3.05;2.10;;;26.20;50.30;;;;;;5020126;28;20508;-69
2023/09/08 00:46:08;;;;;;;2.25;1.98;;;26.20;50.30;;;;;;5020421;28;20156;-67
2023/09/08 00:48:34;;;;;;;2.83;2.40;;;26.20;50.30;;;;;;5019625;28;20030;-63
2023/09/08 00:51:00;;;;;;;2.72;2.20;;;26.20;50.40;;;;;;5020208;28;20101;-62
2023/09/08 00:53:26;;;;;;;2.63;2.13;;;26.20;50.40;;;;;;5032383;28;20537;-62
2023/09/08 00:55:52;;;;;;;3.30;2.40;;;26.20;50.40;;;;;;5021614;28;20040;-63
2023/09/08 00:58:18;;;;;;;2.80;2.10;;;26.20;50.40;;;;;;5018594;28;20049;-63
2023/09/08 01:00:44;;;;;;;2.70;2.25;;;26.20;50.40;;;;;;5018984;28;20482;-62
2023/09/08 01:03:11;;;;;;;3.10;2.20;;;26.10;50.40;;;;;;5020652;28;20528;-63
2023/09/08 01:05:37;;;;;;;3.10;2.40;;;26.10;50.40;;;;;;5021843;28;20397;-63
2023/09/08 01:08:03;;;;;;;2.92;2.25;;;26.10;50.50;;;;;;5020460;28;20025;-63
2023/09/08 01:10:29;;;;;;;3.17;2.17;;;26.10;50.40;;;;;;5019809;28;20495;-63
2023/09/08 01:12:54;;;;;;;2.83;2.28;;;26.10;50.50;;;;;;5020398;28;20123;-62
2023/09/08 01:15:20;;;;;;;3.00;2.22;;;26.00;50.40;;;;;;5021791;28;20022;-62
2023/09/08 01:17:45;;;;;;;2.50;2.00;;;26.10;50.50;;;;;;5019993;28;20473;-62
2023/09/08 01:20:29;;;;;;;2.67;2.10;;;26.00;50.40;;;;;;5019535;28;20104;-62
2023/09/08 01:23:04;;;;;;;2.30;1.90;;;26.00;50.50;;;;;;5017680;28;20034;-63
2023/09/08 01:25:31;;;;;;;3.40;2.38;;;26.00;50.50;;;;;;5020967;28;20029;-64
2023/09/08 01:28:00;;;;;;;3.35;2.42;;;26.00;50.50;;;;;;5021504;28;20702;-63
2023/09/08 01:30:29;;;;;;;3.00;2.20;;;26.00;50.50;;;;;;5019939;28;20536;-64
2023/09/08 01:32:56;;;;;;;2.95;2.22;;;26.00;50.60;;;;;;5019606;28;20508;-63
2023/09/08 01:35:21;;;;;;;2.90;2.30;;;25.90;50.50;;;;;;5022177;28;20037;-64
2023/09/08 01:37:49;;;;;;;2.72;2.03;;;25.90;50.50;;;;;;5019478;28;20382;-63
2023/09/08 01:40:14;;;;;;;4.38;2.20;;;25.90;50.50;;;;;;5022141;28;20036;-63
2023/09/08 01:42:41;;;;;;;3.05;2.20;;;25.90;50.60;;;;;;5021157;28;20658;-63
2023/09/08 01:45:08;;;;;;;3.17;2.22;;;25.90;50.60;;;;;;5018184;28;20053;-64
2023/09/08 01:47:34;;;;;;;2.80;2.10;;;25.90;50.60;;;;;;5019267;28;20123;-63
2023/09/08 01:49:59;;;;;;;2.78;2.20;;;25.90;50.60;;;;;;5018868;28;20050;-63
2023/09/08 01:52:25;;;;;;;2.22;2.00;;;25.90;50.60;;;;;;5018272;28;20033;-64
2023/09/08 01:54:51;;;;;;;2.83;2.10;;;25.80;50.50;;;;;;5019520;28;20034;-65
2023/09/08 01:57:17;;;;;;;2.67;2.00;;;25.80;50.60;;;;;;5020673;28;20469;-66
2023/09/08 01:59:44;;;;;;;2.90;2.00;;;25.80;50.60;;;;;;5020172;28;20582;-66
2023/09/08 02:02:10;;;;;;;2.63;1.88;;;25.80;50.60;;;;;;5019379;28;20041;-66
2023/09/08 02:04:36;;;;;;;2.95;2.10;;;25.80;50.60;;;;;;5018272;28;20064;-66
2023/09/08 02:07:03;;;;;;;2.88;2.17;;;25.80;50.60;;;;;;5019125;28;20451;-66
2023/09/08 02:09:36;;;;;;;2.60;1.90;;;25.80;50.70;;;;;;5015405;28;20029;-66
2023/09/08 02:12:03;;;;;;;2.45;1.92;;;25.80;50.70;;;;;;5019982;28;20478;-66
2023/09/08 02:14:29;;;;;;;2.70;1.90;;;25.80;50.70;;;;;;5023549;28;20025;-66
2023/09/08 02:16:56;;;;;;;2.70;2.10;;;25.80;50.70;;;;;;5024419;28;20042;-66
2023/09/08 02:19:22;;;;;;;3.03;2.25;;;25.80;50.80;;;;;;5027281;28;20047;-66
2023/09/08 02:21:48;;;;;;;2.60;2.00;;;25.80;50.80;;;;;;5025209;28;20025;-66
2023/09/08 02:24:14;;;;;;;2.33;1.90;;;25.70;50.80;;;;;;5026624;28;20503;-66
2023/09/08 02:26:40;;;;;;;2.50;2.00;;;25.70;50.80;;;;;;5028651;28;20037;-66
2023/09/08 02:29:05;;;;;;;2.30;1.90;;;25.70;50.80;;;;;;5025390;28;20030;-66
2023/09/08 02:31:31;;;;;;;3.13;1.90;;;25.70;50.80;;;;;;5027252;28;20389;-66
2023/09/08 02:33:57;;;;;;;2.78;1.98;;;25.70;50.80;;;;;;5026854;28;20030;-66
2023/09/08 02:36:26;;;;;;;2.55;1.80;;;25.70;50.80;;;;;;5022998;28;20032;-66
2023/09/08 02:38:55;;;;;;;2.90;2.10;;;25.70;50.80;;;;;;5025589;28;20029;-66
2023/09/08 02:41:21;;;;;;;2.45;2.00;;;25.60;50.70;;;;;;5026034;28;20147;-66
2023/09/08 02:43:47;;;;;;;2.25;1.75;;;25.60;50.70;;;;;;5026272;28;20480;-66
2023/09/08 02:46:13;;;;;;;2.70;2.00;;;25.60;50.70;;;;;;5027267;28;20036;-66
2023/09/08 02:48:39;;;;;;;2.20;1.80;;;25.60;50.70;;;;;;5026532;28;20022;-66
2023/09/08 02:51:05;;;;;;;2.58;2.00;;;25.60;50.80;;;;;;5025559;28;20488;-66
2023/09/08 02:53:30;;;;;;;2.72;2.10;;;25.60;50.80;;;;;;5025152;28;20059;-66
2023/09/08 02:55:57;;;;;;;2.40;2.00;;;25.60;50.80;;;;;;5026219;28;20033;-66
2023/09/08 02:58:23;;;;;;;2.50;1.90;;;25.60;50.80;;;;;;5026238;28;20485;-66
2023/09/08 03:00:50;;;;;;;2.35;1.88;;;25.50;50.80;;;;;;5025969;28;20032;-66
2023/09/08 03:03:16;;;;;;;2.50;1.90;;;25.60;50.90;;;;;;5024844;28;20179;-66
2023/09/08 03:05:42;;;;;;;2.53;1.80;;;25.60;50.90;;;;;;5026640;28;20049;-66
2023/09/08 03:08:07;;;;;;;2.65;1.90;;;25.50;50.80;;;;;;5024665;28;20151;-66
2023/09/08 03:10:36;;;;;;;2.33;1.70;;;25.50;50.90;;;;;;5024781;28;20341;-66
2023/09/08 03:13:03;;;;;;;2.25;1.75;;;25.50;50.90;;;;;;5025567;28;20380;-66
2023/09/08 03:15:28;;;;;;;2.33;1.70;;;25.50;50.90;;;;;;5026855;28;20040;-66
2023/09/08 03:17:55;;;;;;;2.20;1.80;;;25.50;50.90;;;;;;5025336;28;20030;-66
2023/09/08 03:20:21;;;;;;;2.47;2.00;;;25.50;50.90;;;;;;5026147;28;20040;-66
2023/09/08 03:22:46;;;;;;;2.47;1.80;;;25.40;50.90;;;;;;5024824;28;20037;-66
2023/09/08 03:25:15;;;;;;;2.70;1.98;;;25.50;51.00;;;;;;5023483;28;20084;-66
2023/09/08 03:27:40;;;;;;;3.88;2.15;;;25.40;50.90;;;;;;5021353;28;20440;-66
2023/09/08 03:30:07;;;;;;;2.53;1.85;;;25.40;51.00;;;;;;5022775;28;20025;-66
2023/09/08 03:32:33;;;;;;;2.45;1.85;;;25.40;51.00;;;;;;5021346;28;20132;-66
2023/09/08 03:34:58;;;;;;;2.67;1.77;;;25.40;51.10;;;;;;5022804;28;20132;-66
2023/09/08 03:37:26;;;;;;;2.88;1.80;;;25.40;51.10;;;;;;5023441;28;20037;-66
2023/09/08 03:39:52;;;;;;;2.63;1.90;;;25.40;51.10;;;;;;5021420;28;20491;-65
2023/09/08 03:42:17;;;;;;;2.20;1.60;;;25.40;51.10;;;;;;5022905;28;20021;-66
2023/09/08 03:44:43;;;;;;;2.55;1.90;;;25.40;51.10;;;;;;5022885;28;20033;-66
2023/09/08 03:47:08;;;;;;;2.35;1.70;;;25.30;51.10;;;;;;5022016;28;20033;-66
2023/09/08 03:49:34;;;;;;;2.58;1.80;;;25.40;51.10;;;;;;5021943;28;20029;-66
2023/09/08 03:51:59;;;;;;;2.70;1.80;;;25.30;51.10;;;;;;5022912;28;20132;-66
2023/09/08 03:54:25;;;;;;;2.67;1.92;;;25.30;51.10;;;;;;5020086;28;20029;-66
2023/09/08 03:56:51;;;;;;;2.50;1.75;;;25.30;51.10;;;;;;5021597;28;20414;-66
2023/09/08 03:59:16;;;;;;;2.45;1.73;;;25.30;51.10;;;;;;5021586;28;20026;-66
2023/09/08 04:01:42;;;;;;;2.50;1.92;;;25.30;51.10;;;;;;5020279;28;20315;-66
2023/09/08 04:04:08;;;;;;;2.25;1.80;;;25.30;51.10;;;;;;5022004;28;20026;-66
2023/09/08 04:06:34;;;;;;;2.30;1.77;;;25.20;51.10;;;;;;5020447;28;20418;-66
2023/09/08 04:08:59;;;;;;;2.55;1.80;;;25.30;51.20;;;;;;5021184;28;20018;-66
2023/09/08 04:11:25;;;;;;;2.78;1.95;;;25.20;51.20;;;;;;5021821;28;20022;-66
2023/09/08 04:13:51;;;;;;;1.98;1.40;;;25.20;51.20;;;;;;5020756;28;20026;-66
2023/09/08 04:16:17;;;;;;;2.40;1.75;;;25.20;51.20;;;;;;5019693;28;20346;-66
2023/09/08 04:18:43;;;;;;;2.53;1.88;;;25.20;51.20;;;;;;5021082;28;20101;-65
2023/09/08 04:21:08;;;;;;;2.60;1.98;;;25.20;51.20;;;;;;5024150;28;20482;-65
2023/09/08 04:23:34;;;;;;;2.25;1.70;;;25.20;51.20;;;;;;5020782;28;20030;-65
2023/09/08 04:26:00;;;;;;;2.28;1.70;;;25.20;51.30;;;;;;5023221;28;20111;-65
2023/09/08 04:28:25;;;;;;;2.30;1.67;;;25.20;51.30;;;;;;5021325;28;20133;-66
2023/09/08 04:30:51;;;;;;;2.50;1.83;;;25.20;51.30;;;;;;5021059;28;20053;-65
2023/09/08 04:33:16;;;;;;;2.35;1.70;;;25.10;51.20;;;;;;5019484;28;20026;-65
2023/09/08 04:35:43;;;;;;;2.20;1.58;;;25.10;51.20;;;;;;5019792;28;20028;-65
2023/09/08 04:38:09;;;;;;;2.30;1.77;;;25.10;51.30;;;;;;5020005;28;20034;-65
2023/09/08 04:40:34;;;;;;;2.03;1.63;;;25.10;51.30;;;;;;5022141;28;20037;-65
2023/09/08 04:43:00;;;;;;;2.55;1.73;;;25.10;51.80;;;;;;5020905;28;20486;-66
2023/09/08 04:45:26;;;;;;;2.28;1.80;;;25.10;51.30;;;;;;5022337;28;20075;-65
2023/09/08 04:47:51;;;;;;;2.67;1.70;;;25.10;51.30;;;;;;5021305;28;20524;-65
2023/09/08 04:50:17;;;;;;;2.35;1.65;;;25.10;51.30;;;;;;5021192;28;20026;-66
2023/09/08 04:52:43;;;;;;;2.05;1.65;;;25.10;51.30;;;;;;5019643;28;20033;-66
2023/09/08 04:55:09;;;;;;;3.35;1.80;;;25.10;51.30;;;;;;5022926;28;20042;-66
2023/09/08 04:57:35;;;;;;;2.40;1.80;;;25.10;51.40;;;;;;5019421;28;20103;-65
2023/09/08 05:00:02;;;;;;;2.30;1.80;;;25.10;51.40;;;;;;5019174;28;20029;-65
2023/09/08 05:02:27;;;;;;;2.50;1.77;;;25.00;51.30;;;;;;5021793;28;20132;-66
2023/09/08 05:04:53;;;;;;;2.40;1.80;;;25.00;51.30;;;;;;5019142;28;20104;-65
2023/09/08 05:07:19;;;;;;;2.72;2.03;;;25.00;51.30;;;;;;5018931;28;20334;-65
2023/09/08 05:09:44;;;;;;;2.35;1.70;;;25.00;51.40;;;;;;5019821;28;20029;-65
2023/09/08 05:12:10;;;;;;;2.25;1.77;;;25.00;51.40;;;;;;5020576;28;20394;-65
2023/09/08 05:14:36;;;;;;;2.25;1.60;;;25.00;51.40;;;;;;5020785;28;20034;-66
2023/09/08 05:17:04;;;;;;;2.25;1.70;;;25.00;51.40;;;;;;5021874;28;20544;-66
2023/09/08 05:19:30;;;;;;;2.42;1.80;;;25.00;51.40;;;;;;5019937;28;20028;-65
2023/09/08 05:21:56;;;;;;;2.72;1.90;;;25.00;51.40;;;;;;5021848;28;20462;-66
2023/09/08 05:24:21;;;;;;;2.30;1.73;;;25.00;51.50;;;;;;5020439;28;20038;-65
2023/09/08 05:26:47;;;;;;;2.50;1.70;;;25.00;51.50;;;;;;5021167;28;20030;-65
2023/09/08 05:29:13;;;;;;;3.08;1.50;;;24.90;51.40;;;;;;5020131;28;20476;-64
2023/09/08 05:31:39;;;;;;;2.10;1.60;;;25.00;51.50;;;;;;5035036;28;20436;-64
2023/09/08 05:34:05;;;;;;;2.60;1.80;;;24.90;51.40;;;;;;5019278;28;20025;-64
2023/09/08 05:36:32;;;;;;;2.10;1.60;;;24.90;51.40;;;;;;5021404;28;20025;-64
2023/09/08 05:38:58;;;;;;;1.90;1.55;;;24.90;51.40;;;;;;5020917;28;20026;-63
2023/09/08 05:41:24;;;;;;;2.47;1.70;;;24.90;51.50;;;;;;5019510;28;20036;-65
2023/09/08 05:43:49;;;;;;;2.58;1.70;;;24.90;51.50;;;;;;5020176;28;20033;-63
2023/09/08 05:46:15;;;;;;;2.20;1.65;;;24.90;51.50;;;;;;5019796;28;20034;-63
2023/09/08 05:48:40;;;;;;;2.50;1.83;;;24.90;51.50;;;;;;5017067;28;20580;-65
2023/09/08 05:51:06;;;;;;;2.40;1.80;;;24.90;51.50;;;;;;5019233;28;20021;-63
2023/09/08 05:53:33;;;;;;;2.63;1.80;;;24.90;51.50;;;;;;5018704;28;20029;-65
2023/09/08 05:55:59;;;;;;;2.20;1.70;;;24.90;51.50;;;;;;5020442;28;20033;-64
2023/09/08 05:58:27;;;;;;;2.08;1.60;;;24.90;51.50;;;;;;5017937;28;20033;-65
2023/09/08 06:00:53;;;;;;;2.20;1.63;;;24.90;52.00;;;;;;5019268;28;20524;-63
2023/09/08 06:03:19;;;;;;;2.40;1.70;;;24.80;51.50;;;;;;5020880;28;20426;-63
2023/09/08 06:05:44;;;;;;;2.35;1.60;;;24.80;51.50;;;;;;5018687;28;20034;-64
2023/09/08 06:08:10;;;;;;;2.30;1.70;;;24.80;51.50;;;;;;5019762;28;20021;-63
2023/09/08 06:10:36;;;;;;;1.95;1.50;;;24.80;51.50;;;;;;5020913;28;20025;-63
2023/09/08 06:13:01;;;;;;;2.33;1.88;;;24.80;51.50;;;;;;5019782;28;20080;-64
2023/09/08 06:15:27;;;;;;;2.13;1.70;;;24.80;51.60;;;;;;5019363;28;20029;-63
2023/09/08 06:17:53;;;;;;;2.38;1.60;;;24.80;51.60;;;;;;5019973;28;20021;-64
2023/09/08 06:20:18;;;;;;;2.40;1.90;;;24.80;51.60;;;;;;5021871;28;20060;-64
2023/09/08 06:22:44;;;;;;;2.17;1.70;;;24.80;51.60;;;;;;5017882;28;20033;-64
2023/09/08 06:25:09;;;;;;;2.30;1.70;;;24.80;51.60;;;;;;5019644;28;20484;-65
2023/09/08 06:27:35;;;;;;;2.42;1.80;;;24.80;51.60;;;;;;5017966;28;20114;-64
2023/09/08 06:30:01;;;;;;;2.35;1.88;;;24.80;51.60;;;;;;5021315;28;20033;-63
2023/09/08 06:32:27;;;;;;;1.95;1.60;;;24.80;51.60;;;;;;5020623;28;20057;-63
2023/09/08 06:34:52;;;;;;;2.65;1.92;;;24.80;51.60;;;;;;5020552;28;20022;-64
2023/09/08 06:37:18;;;;;;;1.90;1.60;;;24.80;51.60;;;;;;5021506;28;20492;-66
2023/09/08 06:39:43;;;;;;;2.58;1.92;;;24.80;51.60;;;;;;5020406;28;20138;-66
2023/09/08 06:42:09;;;;;;;2.50;1.73;;;24.80;51.60;;;;;;5019251;28;20363;-66
2023/09/08 06:44:34;;;;;;;2.22;1.65;;;24.70;51.60;;;;;;5019295;28;20076;-66
2023/09/08 06:47:00;;;;;;;2.45;1.98;;;24.80;51.60;;;;;;5019253;28;20080;-66
2023/09/08 06:49:26;;;;;;;1.95;1.60;;;24.70;51.60;;;;;;5018372;28;20026;-66
2023/09/08 06:51:51;;;;;;;2.70;1.90;;;24.70;51.60;;;;;;5018541;28;20105;-66
2023/09/08 06:54:17;;;;;;;2.05;1.50;;;24.70;51.60;;;;;;5020671;28;20053;-66
2023/09/08 06:56:43;;;;;;;2.17;1.70;;;24.70;51.60;;;;;;5020640;28;20060;-66
2023/09/08 06:59:13;;;;;;;2.20;1.70;;;24.70;51.60;;;;;;5019838;28;20037;-66
2023/09/08 07:01:39;;;;;;;2.10;1.70;;;24.70;51.60;;;;;;5024184;28;20031;-66
2023/09/08 07:04:05;;;;;;;2.22;1.60;;;24.70;51.70;;;;;;5020804;28;20460;-66
2023/09/08 07:06:30;;;;;;;2.22;1.80;;;24.70;51.70;;;;;;5023315;28;20037;-66
2023/09/08 07:08:56;;;;;;;2.05;1.63;;;24.70;51.70;;;;;;5021915;28;20018;-66
2023/09/08 07:11:22;;;;;;;2.40;1.70;;;24.70;51.70;;;;;;5021258;28;20100;-66
2023/09/08 07:13:47;;;;;;;2.33;1.70;;;24.70;51.70;;;;;;5023501;28;20026;-66
2023/09/08 07:16:13;;;;;;;2.22;1.80;;;24.70;51.70;;;;;;5023810;28;20186;-66
2023/09/08 07:18:39;;;;;;;2.25;1.75;;;24.60;51.60;;;;;;5020567;28;20030;-66
2023/09/08 07:21:04;;;;;;;2.30;1.80;;;24.70;51.70;;;;;;5020347;28;20071;-66
2023/09/08 07:23:30;;;;;;;2.50;1.80;;;24.60;52.00;;;;;;5035059;28;20401;-65
2023/09/08 07:25:55;;;;;;;2.03;1.70;;;24.60;51.70;;;;;;5022512;28;20457;-66
2023/09/08 07:28:21;;;;;;;2.50;1.77;;;24.60;51.70;;;;;;5021812;28;20381;-66
2023/09/08 07:30:47;;;;;;;2.15;1.58;;;24.60;51.70;;;;;;5024966;28;20056;-66
2023/09/08 07:33:12;;;;;;;2.40;1.83;;;24.60;51.70;;;;;;5020316;28;20030;-66
2023/09/08 07:35:39;;;;;;;2.17;1.52;;;24.60;51.70;;;;;;5021045;28;20494;-66
2023/09/08 07:38:05;;;;;;;2.08;1.60;;;24.60;51.70;;;;;;5024168;28;20452;-66
2023/09/08 07:40:34;;;;;;;2.05;1.73;;;24.60;51.70;;;;;;5021131;28;20100;-66
2023/09/08 07:43:00;;;;;;;2.47;1.80;;;24.60;51.70;;;;;;5022748;28;20033;-66
2023/09/08 07:45:26;;;;;;;2.30;1.88;;;24.60;51.70;;;;;;5022165;28;20029;-66
2023/09/08 07:47:52;;;;;;;2.45;1.90;;;24.60;51.80;;;;;;5021580;28;20440;-66
2023/09/08 07:50:23;;;;;;;2.47;1.90;;;24.60;51.80;;;;;;5022567;28;20029;-66
2023/09/08 07:52:50;;;;;;;2.13;1.70;;;24.60;51.80;;;;;;5021404;28;20033;-65
2023/09/08 07:55:16;;;;;;;2.15;1.70;;;24.60;51.80;;;;;;5020470;28;20087;-66
2023/09/08 07:57:45;;;;;;;2.47;1.90;;;24.60;51.80;;;;;;5014036;28;20026;-65
2023/09/08 08:00:12;;;;;;;2.67;1.80;;;24.60;51.80;;;;;;5019629;28;20410;-66
2023/09/08 08:02:42;;;;;;;2.85;1.80;;;24.60;51.80;;;;;;5021643;28;20068;-66
2023/09/08 08:05:07;;;;;;;2.45;1.80;;;24.60;51.80;;;;;;5020978;28;20136;-66
2023/09/08 08:07:33;;;;;;;2.50;1.80;;;24.60;51.80;;;;;;5020624;28;20497;-66
2023/09/08 08:09:59;;;;;;;2.33;1.90;;;24.60;51.80;;;;;;5021312;28;20033;-66
2023/09/08 08:12:24;;;;;;;2.33;1.70;;;24.60;51.80;;;;;;5020688;28;20105;-66
2023/09/08 08:14:50;;;;;;;2.95;2.17;;;24.60;52.30;;;;;;5022870;28;20030;-66
2023/09/08 08:17:17;;;;;;;2.58;1.98;;;24.60;51.80;;;;;;5023677;28;20423;-66
2023/09/08 08:19:43;;;;;;;2.72;1.80;;;24.60;52.30;;;;;;5020593;28;20103;-66
2023/09/08 08:22:09;;;;;;;2.22;1.73;;;24.60;51.90;;;;;;5022884;28;20025;-66
2023/09/08 08:24:34;;;;;;;2.83;1.80;;;24.60;51.80;;;;;;5021072;28;20168;-66
2023/09/08 08:27:01;;;;;;;2.30;1.80;;;24.50;51.80;;;;;;5018810;28;20037;-66
2023/09/08 08:29:31;;;;;;;2.30;1.70;;;24.50;51.80;;;;;;5022433;28;20049;-66
2023/09/08 08:31:56;;;;;;;;;;;24.60;51.80;;;;;;5020994;28;20507;-66
2023/09/08 08:34:22;;;;;;;2.30;1.90;;;24.50;51.80;;;;;;5019927;28;19908;-66
2023/09/08 08:36:47;;;;;;;2.30;1.77;;;24.50;51.80;;;;;;5019873;28;20364;-66
2023/09/08 08:39:13;;;;;;;2.45;1.83;;;24.50;51.80;;;;;;5021021;28;20029;-66
2023/09/08 08:41:41;;;;;;;2.17;1.73;;;24.50;52.30;;;;;;5020422;28;20025;-66
2023/09/08 08:44:07;;;;;;;2.80;2.10;;;24.60;51.90;;;;;;5020268;28;20096;-66
2023/09/08 08:46:35;;;;;;;2.20;1.70;;;24.50;51.80;;;;;;5020681;28;20021;-66
2023/09/08 08:49:03;;;;;;;2.53;1.95;;;24.60;51.90;;;;;;5021068;28;20040;-66
2023/09/08 08:51:30;;;;;;;2.42;1.88;;;24.60;51.90;;;;;;5019249;28;20037;-66
2023/09/08 08:53:57;;;;;;;3.55;2.13;;;24.60;51.90;;;;;;5020122;28;20358;-66
2023/09/08 08:56:23;;;;;;;2.00;1.52;;;24.50;51.80;;;;;;5020510;28;20025;-66
2023/09/08 08:58:50;;;;;;;2.70;1.90;;;24.50;51.80;;;;;;5020749;28;20037;-63
2023/09/08 09:01:20;;;;;;;2.80;1.98;;;24.60;51.90;;;;;;5021059;28;20040;-63
2023/09/08 09:03:49;;;;;;;2.50;2.00;;;24.60;51.90;;;;;;5020860;28;20457;-63
2023/09/08 09:06:15;;;;;;;2.53;1.87;;;24.60;51.90;;;;;;5021569;28;20361;-62
2023/09/08 09:08:43;;;;;;;2.65;2.00;;;24.60;51.90;;;;;;5018755;28;20384;-63
2023/09/08 09:11:10;;;;;;;3.10;2.20;;;24.50;51.80;;;;;;5020644;28;20037;-65
2023/09/08 09:13:35;;;;;;;2.78;2.08;;;24.60;51.90;;;;;;5019104;28;20037;-64
2023/09/08 09:16:03;;;;;;;2.60;1.98;;;24.60;51.90;;;;;;5020888;28;20063;-64
2023/09/08 09:18:32;;;;;;;2.70;1.88;;;24.60;51.90;;;;;;5020564;28;20397;-63
2023/09/08 09:21:02;;;;;;;2.55;2.00;;;24.50;52.40;;;;;;5018659;28;20101;-64
2023/09/08 09:23:29;;;;;;;3.10;2.22;;;24.60;52.00;;;;;;5019527;28;20393;-65
2023/09/08 09:25:54;;;;;;;2.78;2.20;;;24.60;51.90;;;;;;5021353;28;20697;-63
2023/09/08 09:28:20;;;;;;;3.35;2.20;;;24.60;51.90;;;;;;5020276;28;20037;-63
2023/09/08 09:30:48;;;;;;;2.80;2.00;;;24.60;51.90;;;;;;5021065;28;20030;-63
2023/09/08 09:33:14;;;;;;;2.83;2.05;;;24.60;51.90;;;;;;5021034;28;20048;-63
2023/09/08 09:35:53;;;;;;;2.60;1.90;;;24.60;52.00;;;;;;5020134;28;20025;-63
2023/09/08 09:38:20;;;;;;;2.85;2.08;;;24.50;51.90;;;;;;5020609;28;20436;-64
2023/09/08 09:40:47;;;;;;;2.67;2.00;;;24.60;52.50;;;;;;5016380;28;20473;-64
2023/09/08 09:43:17;;;;;;;2.75;1.95;;;24.60;52.00;;;;;;5021145;28;20045;-64
2023/09/08 09:45:43;;;;;;;2.50;2.00;;;24.60;52.00;;;;;;5020649;28;20025;-64
2023/09/08 09:48:10;;;;;;;3.08;2.30;;;24.60;52.00;;;;;;5018460;28;20037;-63
2023/09/08 09:50:39;;;;;;;2.50;2.08;;;24.60;52.00;;;;;;5018461;28;20026;-63
2023/09/08 09:53:23;;;;;;;;;;;24.60;52.00;;;;;;5018541;28;20030;-64
2023/09/08 09:55:49;;;;;;;2.72;2.05;;;24.60;52.00;;;;;;5020783;28;19917;-64
2023/09/08 09:58:21;;;;;;;3.03;2.25;;;24.60;52.00;;;;;;5019794;28;20096;-64
2023/09/08 10:00:47;;;;;;;3.00;2.20;;;24.60;52.00;;;;;;5010234;28;20091;-63
2023/09/08 10:03:14;;;;;;;2.70;2.10;;;24.60;52.00;;;;;;5018291;28;20071;-63
2023/09/08 10:05:39;;;;;;;3.03;2.08;;;24.60;52.00;;;;;;5019455;28;20477;-64
2023/09/08 10:08:06;;;;;;;2.60;2.15;;;24.60;52.00;;;;;;5018917;28;20084;-66
2023/09/08 10:10:34;;;;;;;2.53;1.90;;;24.60;52.00;;;;;;5020124;28;20032;-66
2023/09/08 10:13:03;;;;;;;2.40;2.10;;;24.60;52.00;;;;;;5020928;28;20518;-66
2023/09/08 10:15:31;;;;;;;2.60;1.95;;;24.60;52.10;;;;;;5018493;28;20026;-66
2023/09/08 10:17:57;;;;;;;2.22;1.88;;;24.50;52.00;;;;;;5029456;28;20065;-66
2023/09/08 10:20:24;;;;;;;2.53;2.22;;;24.50;52.10;;;;;;5019248;28;20025;-66
2023/09/08 10:22:56;;;;;;;2.70;2.05;;;24.60;52.10;;;;;;5019713;28;20045;-66
2023/09/08 10:25:24;;;;;;;2.70;2.00;;;24.50;52.10;;;;;;5017186;28;20438;-66
2023/09/08 10:27:50;;;;;;;2.67;2.08;;;24.50;52.10;;;;;;5020991;28;20469;-66
2023/09/08 10:30:17;;;;;;;2.70;2.00;;;24.60;52.20;;;;;;5019712;28;20507;-66
2023/09/08 10:32:43;;;;;;;2.88;2.13;;;24.60;52.20;;;;;;5020672;28;20025;-66
2023/09/08 10:35:10;;;;;;;2.75;2.00;;;24.50;52.20;;;;;;5014259;28;20053;-66
2023/09/08 10:37:35;;;;;;;2.70;2.28;;;24.60;52.20;;;;;;5023339;28;20041;-66
2023/09/08 10:40:23;;;;;;;2.90;2.15;;;24.50;52.20;;;;;;5022581;28;20369;-66
2023/09/08 10:42:49;;;;;;;2.42;1.95;;;24.50;52.20;;;;;;5023950;28;20513;-66
2023/09/08 10:45:20;;;;;;;2.75;2.22;;;24.60;52.20;;;;;;5020749;28;20409;-66
2023/09/08 10:47:45;;;;;;;2.50;1.98;;;24.50;52.20;;;;;;5023456;28;20105;-66
2023/09/08 10:50:26;;;;;;;2.85;2.00;;;24.50;52.20;;;;;;5024800;28;20112;-66
2023/09/08 10:53:10;;;;;;;2.72;2.00;;;24.60;52.30;;;;;;5024888;28;20025;-66
2023/09/08 10:55:40;;;;;;;2.33;1.90;;;24.50;52.20;;;;;;5021480;28;20571;-66
2023/09/08 10:58:06;;;;;;;2.45;2.10;;;24.60;52.30;;;;;;5033379;28;20037;-66
2023/09/08 11:00:44;;;;;;;3.40;2.10;;;24.50;52.30;;;;;;5021149;28;20509;-66
2023/09/08 11:03:11;;;;;;;2.88;2.15;;;24.60;52.30;;;;;;5023589;28;20030;-66
2023/09/08 11:05:37;;;;;;;2.60;2.00;;;24.50;52.30;;;;;;5023049;28;20120;-66
2023/09/08 11:08:03;;;;;;;2.72;2.20;;;24.60;52.40;;;;;;5022323;28;20105;-66
2023/09/08 11:10:30;;;;;;;3.05;2.20;;;24.60;52.60;;;;;;5020025;28;20496;-66
2023/09/08 11:12:56;;;;;;;3.33;2.08;;;24.60;52.40;;;;;;5022731;28;20512;-66
2023/09/08 11:15:22;;;;;;;2.95;2.20;;;24.60;52.40;;;;;;5022179;28;20033;-66
2023/09/08 11:17:50;;;;;;;2.97;2.33;;;24.60;52.50;;;;;;5021781;28;20114;-66
2023/09/08 11:20:17;;;;;;;2.80;2.22;;;24.60;52.50;;;;;;5022551;28;20485;-66
2023/09/08 11:22:44;;;;;;;2.85;2.10;;;24.60;52.50;;;;;;5012802;28;20030;-66
2023/09/08 11:25:11;;;;;;;2.72;2.20;;;24.60;52.50;;;;;;5023783;28;20080;-66
2023/09/08 11:27:39;;;;;;;3.00;2.10;;;24.60;52.50;;;;;;5020956;28;20116;-66
2023/09/08 11:30:07;;;;;;;2.65;2.03;;;24.60;52.50;;;;;;5016261;28;20547;-66
2023/09/08 11:32:34;;;;;;;2.73;2.10;;;24.60;52.50;;;;;;5023015;28;20013;-66
2023/09/08 11:35:09;;;;;;;2.58;1.98;;;24.60;52.50;;;;;;5016156;28;20417;-66
2023/09/08 11:37:38;;;;;;;3.33;2.30;;;24.60;52.50;;;;;;5023305;28;20041;-66
2023/09/08 11:40:09;;;;;;;2.47;2.00;;;24.60;52.50;;;;;;5022411;28;20434;-66
2023/09/08 11:42:35;;;;;;;2.60;1.90;;;24.60;52.50;;;;;;5021043;28;20030;-66
2023/09/08 11:45:03;;;;;;;3.33;2.22;;;24.60;52.50;;;;;;5014379;28;20385;-66
2023/09/08 11:47:29;;;;;;;3.25;2.25;;;24.60;52.50;;;;;;5038625;28;20073;-66
2023/09/08 11:49:57;;;;;;;2.90;2.13;;;24.60;52.60;;;;;;5022394;28;20025;-66
2023/09/08 11:52:25;;;;;;;3.25;2.25;;;24.60;52.60;;;;;;5036682;28;20117;-66
2023/09/08 11:54:52;;;;;;;2.47;1.95;;;24.60;52.60;;;;;;5020984;28;20029;-66
2023/09/08 11:57:18;;;;;;;2.97;1.90;;;24.60;52.60;;;;;;5019997;28;20060;-66
2023/09/08 11:59:47;;;;;;;2.88;2.05;;;24.60;52.60;;;;;;5021228;28;20036;-66
2023/09/08 12:02:13;;;;;;;2.22;1.83;;;24.60;52.60;;;;;;5022240;28;20126;-66
2023/09/08 12:04:41;;;;;;;3.15;2.22;;;24.60;52.60;;;;;;5021682;28;20030;-66
2023/09/08 12:07:07;;;;;;;2.80;2.10;;;24.60;52.60;;;;;;5020542;28;20037;-66
2023/09/08 12:09:32;;;;;;;2.55;2.05;;;24.60;52.60;;;;;;5021355;28;20021;-66
2023/09/08 12:12:02;;;;;;;2.67;1.98;;;24.70;52.70;;;;;;5023142;28;20152;-66
2023/09/08 12:14:28;;;;;;;2.80;2.25;;;24.60;52.60;;;;;;5021315;28;20084;-66
2023/09/08 12:17:07;;;;;;;2.65;2.03;;;24.70;52.70;;;;;;5030150;28;20030;-67
2023/09/08 12:19:33;;;;;;;3.15;2.15;;;24.60;52.60;;;;;;5021089;28;20033;-65
2023/09/08 12:22:03;;;;;;;2.45;1.85;;;24.70;52.70;;;;;;5021765;28;20091;-64
2023/09/08 12:24:57;;;;;;;2.67;2.20;;;24.60;52.70;;;;;;5022518;28;20535;-63
2023/09/08 12:27:23;;;;;;;2.50;2.08;;;24.60;52.70;;;;;;5022369;28;20028;-68
2023/09/08 12:30:04;;;;;;;2.72;2.00;;;24.60;52.60;;;;;;5021918;28;20029;-68
2023/09/08 12:32:32;;;;;;;2.30;1.90;;;24.60;52.70;;;;;;5022531;28;20429;-68
2023/09/08 12:35:00;;;;;;;3.03;2.20;;;24.70;52.80;;;;;;5020795;28;20406;-68
2023/09/08 12:37:27;;;;;;;2.97;2.10;;;24.60;52.70;;;;;;5020945;28;20040;-68
2023/09/08 12:39:53;;;;;;;2.70;2.10;;;24.60;52.70;;;;;;5022397;28;20499;-69
2023/09/08 12:42:20;;;;;;;2.47;1.95;;;24.60;52.70;;;;;;5023881;28;20171;-68
2023/09/08 12:44:46;;;;;;;2.65;2.20;;;24.60;52.70;;;;;;5021153;28;20033;-68
2023/09/08 12:47:12;;;;;;;2.55;1.90;;;24.70;52.80;;;;;;5016482;28;20436;-69